Westerdam — PINX — position and weather

sailwx.info

Track history (hours):
 
Tides and Currents Weather Stations Pressure Air Temp Water Temp Dewpoint Dewpoint Depression Visibility Wind Speed Wind Dir Waves Ship Positions

Westerdam

Operator: Holland America Line

Last reported at 2017-Jul-22 12:00 UTC. Time now 2017-Jul-22 12:42 UTC.
Position N 42°00' E 011°42'.

Type: Passenger vessel. MMSI: 244128000.

Wind from 170 at 15 knots

Barometer 1015.8 mb
Air temperature 29.0 ° C
Visibility: greater than 10.8 NM
Dewpoint 22.5 ° C
Water temperature 26.4 ° C

Date/timePositionNaut miles runAvg speedWind from/ knotsBaromVisibWave heightAir tempDewpointWater temp
2017-Jul-22 12:00N 42°00' E 011°42'86 5.9 170 / 151015.810.8 29.022.526.4
2017-Jul-21 21:24N 40°48' E 012°45'716.2
2017-Jul-21 21:00N 40°42' E 012°48'1432.0 170 / 121014.010.8 26.020.826.4
2017-Jul-21 20:33N 40°45' E 013°06'119.4
2017-Jul-21 20:30N 40°44' E 013°07'1219.5
2017-Jul-21 19:54N 40°42' E 013°23'819.5
2017-Jul-21 19:30N 40°41' E 013°33'1019.3
2017-Jul-21 19:00N 40°39' E 013°45'1019.4
2017-Jul-21 18:30N 40°38' E 013°58'918.0
2017-Jul-21 18:00N 40°41' E 014°09'918.3
2017-Jul-21 17:30N 40°48' E 014°16'2 4.5
2017-Jul-21 17:00N 40°51' E 014°16'0 0.2
2017-Jul-21 16:29N 40°51' E 014°16'0 0.0
2017-Jul-21 15:59N 40°51' E 014°16'0 0.0
2017-Jul-21 15:23N 40°51' E 014°16'0 0.0
2017-Jul-21 14:56N 40°51' E 014°16'0 0.0
2017-Jul-21 14:29N 40°51' E 014°16'0 0.0
2017-Jul-21 13:59N 40°51' E 014°16'0 0.0
2017-Jul-21 13:29N 40°51' E 014°16'0 0.0
2017-Jul-21 12:59N 40°51' E 014°16'0 0.0
2017-Jul-21 12:29N 40°51' E 014°16'0 0.0
2017-Jul-21 11:53N 40°51' E 014°16'0 0.0
2017-Jul-21 11:29N 40°51' E 014°16'0 0.0
2017-Jul-21 10:56N 40°51' E 014°16'0 0.0
2017-Jul-21 10:29N 40°51' E 014°16'0 0.0
2017-Jul-21 09:59N 40°51' E 014°16'0 0.0
2017-Jul-21 09:29N 40°51' E 014°16'0 0.0
2017-Jul-21 08:56N 40°51' E 014°16'0 0.0
2017-Jul-21 08:29N 40°51' E 014°16'0 0.0
2017-Jul-21 07:56N 40°51' E 014°16'0 0.0
2017-Jul-21 07:26N 40°51' E 014°16'0 0.0
2017-Jul-21 06:50N 40°51' E 014°16'0 0.0
2017-Jul-21 05:44N 40°51' E 014°16'0 0.0
2017-Jul-21 05:26N 40°51' E 014°16'0 0.0
2017-Jul-21 04:59N 40°51' E 014°16'0 0.0
2017-Jul-21 04:29N 40°51' E 014°16'0 0.3
2017-Jul-21 04:00N 40°50' E 014°16'3 5.0
2017-Jul-21 03:30N 40°48' E 014°17'914.3
2017-Jul-21 02:50N 40°39' E 014°16'514.0
2017-Jul-21 02:30N 40°34' E 014°17'918.2
2017-Jul-21 02:01N 40°26' E 014°21'3168.0
2017-Jul-21 02:00N 40°24' E 014°18'1020.1 060 / 81013.810.8 23.621.524.5
2017-Jul-21 01:29N 40°16' E 014°26'4919.6
2017-Jul-20 23:00N 39°30' E 014°48'4419.0 270 / 81014.510.8 25.917.824.5
2017-Jul-20 20:40N 38°49' E 015°11'316.5
2017-Jul-20 20:30N 38°48' E 015°08'1018.1
2017-Jul-20 19:57N 38°41' E 015°17'919.2
2017-Jul-20 19:30N 38°34' E 015°24'919.2
2017-Jul-20 19:01N 38°27' E 015°32'918.9
2017-Jul-20 18:30N 38°20' E 015°40'611.4
2017-Jul-20 17:59N 38°14' E 015°38'714.3
2017-Jul-20 17:28N 38°07' E 015°35'1315.4
2017-Jul-20 16:39N 37°55' E 015°38'315.8
2017-Jul-20 16:28N 37°52' E 015°40'816.8
2017-Jul-20 16:00N 37°50' E 015°49'916.6
2017-Jul-20 15:29N 37°47' E 015°60'714.5
2017-Jul-20 15:00N 37°42' E 016°06'4916.3 240 / 31013.510.8 27.918.024.0
2017-Jul-20 12:00N 37°30' E 017°06'1515.5 1014.510.8 27.918.024.0
2017-Jul-20 11:00N 37°24' E 017°24'1922.1 310 / 51014.710.8 27.817.624.0
2017-Jul-20 10:07N 37°23' E 017°49'218.9
2017-Jul-20 09:59N 37°23' E 017°51'919.0
2017-Jul-20 09:31N 37°20' E 018°02'3719.0
2017-Jul-20 07:33N 37°10' E 018°47'118.9
2017-Jul-20 07:30N 37°10' E 018°48'1018.9
2017-Jul-20 06:58N 37°07' E 019°01'2020.5
2017-Jul-20 06:00N 37°00' E 019°24'2020.1 360 / 141014.810.8 25.020.024.0
2017-Jul-20 05:00N 36°54' E 019°48'3818.2 350 / 211014.210.8 25.5 24.0
2017-Jul-20 02:54N 36°46' E 020°34'819.3
2017-Jul-20 02:31N 36°44' E 020°44'25033.3
2017-Jul-19 19:00N 36°24' E 025°54'24 3.4 010 / 321014.010.8 25.518.925.5
2017-Jul-19 12:00N 36°24' E 025°24'44 4.0 320 / 211013.210.8 25.518.925.5
2017-Jul-19 01:00N 36°18' E 024°30'26 8.6 350 / 281015.710.8 23.216.725.5
2017-Jul-18 22:00N 36°42' E 024°42'2612.4 360 / 251016.110.8
2017-Jul-18 19:52N 37°06' E 024°57'410.6
2017-Jul-18 19:30N 37°09' E 024°59'510.5
2017-Jul-18 19:00N 37°14' E 025°02'510.7
2017-Jul-18 18:30N 37°19' E 025°05'510.6
2017-Jul-18 18:01N 37°23' E 025°08'510.7
2017-Jul-18 17:30N 37°28' E 025°12'611.7
2017-Jul-18 17:00N 37°27' E 025°19'0 0.2
2017-Jul-18 16:31N 37°27' E 025°19'0 0.3
2017-Jul-18 16:01N 37°27' E 025°19'0 0.4
2017-Jul-18 15:30N 37°28' E 025°19'0 0.2
2017-Jul-18 15:00N 37°28' E 025°19'0 0.1
2017-Jul-18 14:00N 37°28' E 025°19'0 0.1
2017-Jul-18 13:31N 37°28' E 025°19'0 0.6
2017-Jul-18 13:00N 37°27' E 025°19'1 1.3
2017-Jul-18 12:28N 37°27' E 025°19'0 0.3
2017-Jul-18 11:58N 37°27' E 025°19'0 0.1
2017-Jul-18 11:28N 37°27' E 025°19'0 0.2
2017-Jul-18 10:58N 37°27' E 025°19'0 0.0
2017-Jul-18 10:25N 37°27' E 025°19'0 0.0
2017-Jul-18 09:58N 37°27' E 025°19'0 0.0
2017-Jul-18 09:28N 37°27' E 025°19'0 0.0
2017-Jul-18 08:58N 37°27' E 025°19'0 0.0
2017-Jul-18 08:28N 37°27' E 025°19'0 0.0
2017-Jul-18 07:55N 37°27' E 025°19'0 0.0
2017-Jul-18 07:28N 37°27' E 025°19'0 0.0
2017-Jul-18 06:58N 37°27' E 025°19'0 0.0
2017-Jul-18 06:28N 37°27' E 025°19'0 0.0
2017-Jul-18 05:58N 37°27' E 025°19'0 0.0
2017-Jul-18 05:28N 37°27' E 025°19'3 6.4
2017-Jul-18 05:00N 37°24' E 025°18'3103.2 340 / 281013.110.8 23.418.5
2017-Jul-18 04:58N 37°27' E 025°19'0 0.0
2017-Jul-18 04:28N 37°27' E 025°19'0 0.0
2017-Jul-18 03:58N 37°27' E 025°19'0 0.0
2017-Jul-18 03:28N 37°27' E 025°19'0 0.0
2017-Jul-18 02:58N 37°27' E 025°19'0 0.0
2017-Jul-18 02:28N 37°27' E 025°19'0 0.0
2017-Jul-18 01:58N 37°27' E 025°19'0 0.1
2017-Jul-18 01:25N 37°27' E 025°19'0 0.0
2017-Jul-18 00:58N 37°27' E 025°19'0 0.1
2017-Jul-18 00:30N 37°27' E 025°19'1 2.4
2017-Jul-18 00:00N 37°27' E 025°18'714.9
2017-Jul-17 23:30N 37°29' E 025°09'815.1
2017-Jul-17 23:00N 37°31' E 024°59'714.7
2017-Jul-17 22:30N 37°32' E 024°50'3422.2
2017-Jul-17 21:00N 37°18' E 024°12'29 6.0 360 / 221013.110.8 22.616.6
2017-Jul-17 16:12N 37°35' E 023°43'314.9
2017-Jul-17 16:00N 37°38' E 023°43'714.6
2017-Jul-17 15:30N 37°45' E 023°40'714.6
2017-Jul-17 15:00N 37°52' E 023°36'5 9.5
2017-Jul-17 14:31N 37°56' E 023°38'0 0.5
2017-Jul-17 13:58N 37°56' E 023°38'0 0.0
2017-Jul-17 13:28N 37°56' E 023°38'0 0.0
2017-Jul-17 12:58N 37°56' E 023°38'0 0.0
2017-Jul-17 12:28N 37°56' E 023°38'0 0.0
2017-Jul-17 11:58N 37°56' E 023°38'0 0.0
2017-Jul-17 11:28N 37°56' E 023°38'0 0.0
2017-Jul-17 10:58N 37°56' E 023°38'0 0.0
2017-Jul-17 10:28N 37°56' E 023°38'0 0.0
2017-Jul-17 09:58N 37°56' E 023°38'0 0.0
2017-Jul-17 09:28N 37°56' E 023°38'0 0.0
2017-Jul-17 08:58N 37°56' E 023°38'0 0.0
2017-Jul-17 08:25N 37°56' E 023°38'0 0.0
2017-Jul-17 07:58N 37°56' E 023°38'0 0.0
2017-Jul-17 07:28N 37°56' E 023°38'0 0.0
2017-Jul-17 06:58N 37°56' E 023°38'0 0.0
2017-Jul-17 06:28N 37°56' E 023°38'0 0.0
2017-Jul-17 05:58N 37°56' E 023°38'0 0.0
2017-Jul-17 05:28N 37°56' E 023°38'0 0.0
2017-Jul-17 04:58N 37°56' E 023°38'0 0.0
2017-Jul-17 04:28N 37°56' E 023°38'0 0.0
2017-Jul-17 03:58N 37°56' E 023°38'0 0.0
2017-Jul-17 03:28N 37°56' E 023°38'0 0.0
2017-Jul-17 02:58N 37°56' E 023°38'0 0.0
2017-Jul-17 02:28N 37°56' E 023°38'0 0.0
2017-Jul-17 01:58N 37°56' E 023°38'0 0.0
2017-Jul-17 01:28N 37°56' E 023°38'0 0.0
2017-Jul-17 00:55N 37°56' E 023°38'0 0.0
2017-Jul-17 00:28N 37°56' E 023°38'3 6.1
2017-Jul-17 00:00N 37°54' E 023°36'3113.8 330 / 81008.510.8 25.719.625.6
2017-Jul-16 23:58N 37°56' E 023°38'0 0.0
2017-Jul-16 23:28N 37°56' E 023°38'0 0.0
2017-Jul-16 22:58N 37°56' E 023°38'0 0.0
2017-Jul-16 22:28N 37°56' E 023°38'0 0.0
2017-Jul-16 21:58N 37°56' E 023°38'0 0.0
2017-Jul-16 21:28N 37°56' E 023°38'0 0.0
2017-Jul-16 20:58N 37°56' E 023°38'0 0.0
2017-Jul-16 20:28N 37°56' E 023°38'0 0.0
2017-Jul-16 19:58N 37°56' E 023°38'0 0.0
2017-Jul-16 19:28N 37°56' E 023°38'0 0.0
2017-Jul-16 18:58N 37°56' E 023°38'0 0.0
2017-Jul-16 18:28N 37°56' E 023°38'0 0.0
2017-Jul-16 17:58N 37°56' E 023°38'0 0.0
2017-Jul-16 17:28N 37°56' E 023°38'0 0.0
2017-Jul-16 16:58N 37°56' E 023°38'0 0.0
2017-Jul-16 16:28N 37°56' E 023°38'0 0.0
2017-Jul-16 15:58N 37°56' E 023°38'0 0.0
2017-Jul-16 15:28N 37°56' E 023°38'0 0.0
2017-Jul-16 14:58N 37°56' E 023°38'0 0.0
2017-Jul-16 14:28N 37°56' E 023°38'0 0.0
2017-Jul-16 13:58N 37°56' E 023°38'0 0.0
2017-Jul-16 13:28N 37°56' E 023°38'0 0.0
2017-Jul-16 12:58N 37°56' E 023°38'0 0.0
2017-Jul-16 12:28N 37°56' E 023°38'0 0.0
2017-Jul-16 11:58N 37°56' E 023°38'0 0.0
2017-Jul-16 11:28N 37°56' E 023°38'0 0.0
2017-Jul-16 10:58N 37°56' E 023°38'0 0.0
2017-Jul-16 10:28N 37°56' E 023°38'3 6.1
2017-Jul-16 10:00N 37°54' E 023°36'3115.0 1008.510.8 30.723.126.6
2017-Jul-16 09:58N 37°56' E 023°38'0 0.0
2017-Jul-16 09:28N 37°56' E 023°38'0 0.0
2017-Jul-16 08:58N 37°56' E 023°38'0 0.0
2017-Jul-16 08:28N 37°56' E 023°38'0 0.0
2017-Jul-16 07:58N 37°56' E 023°38'0 0.0
2017-Jul-16 07:28N 37°56' E 023°38'0 0.0
2017-Jul-16 06:58N 37°56' E 023°38'0 0.0
2017-Jul-16 06:28N 37°56' E 023°38'0 0.0
2017-Jul-16 05:58N 37°56' E 023°38'0 0.0
2017-Jul-16 05:28N 37°56' E 023°38'0 0.0
2017-Jul-16 04:58N 37°56' E 023°38'0 0.0
2017-Jul-16 04:28N 37°56' E 023°38'0 0.0
2017-Jul-16 03:58N 37°56' E 023°38'0 0.0
2017-Jul-16 03:28N 37°56' E 023°38'0 0.0
2017-Jul-16 02:58N 37°56' E 023°38'0 0.0
2017-Jul-16 02:28N 37°56' E 023°38'0 0.0
2017-Jul-16 01:58N 37°56' E 023°38'0 0.0
2017-Jul-16 01:28N 37°56' E 023°38'0 0.0
2017-Jul-16 00:58N 37°56' E 023°38'0 0.0
2017-Jul-16 00:28N 37°56' E 023°38'0 0.0
2017-Jul-15 23:58N 37°56' E 023°38'0 0.0
2017-Jul-15 23:28N 37°56' E 023°38'0 0.0
2017-Jul-15 22:58N 37°56' E 023°38'0 0.0
2017-Jul-15 22:29N 37°56' E 023°38'0 1.0
2017-Jul-15 22:00N 37°56' E 023°38'3 6.3
2017-Jul-15 21:30N 37°53' E 023°37'919.0
2017-Jul-15 21:00N 37°45' E 023°42'1019.2
2017-Jul-15 20:30N 37°36' E 023°47'45 2.5
2017-Jul-15 02:41N 37°15' E 022°57'4124.3
2017-Jul-15 01:00N 36°36' E 023°12'713.3 260 / 31007.010.8 26.717.726.6
2017-Jul-15 00:26N 36°43' E 023°11'716.4
2017-Jul-15 00:00N 36°36' E 023°12'1918.6 310 / 91007.010.8 26.717.726.6
2017-Jul-14 23:00N 36°18' E 023°06'6315.8 340 / 91007.010.8 26.717.726.6
2017-Jul-14 19:00N 36°24' E 021°48'3413.0 030 / 71007.0 5.4 26.7
2017-Jul-14 16:23N 36°51' E 021°22'3313.9
2017-Jul-14 14:00N 37°24' E 021°24'20 1.5 260 / 161007.010.8 28.1
2017-Jul-14 01:00N 37°30' E 021°00'0 0.0 040 / 51006.2 5.4 25.925.026.0
2017-Jul-13 23:00N 37°30' E 021°00'20 5.0 130 / 51007.010.8 25.5 26.0
2017-Jul-13 19:00N 37°24' E 020°36'1946139.0 340 / 241008.310.8 27.8
2017-Jul-13 05:00N 38°06' W 020°24'1911238.8 160 / 51008.710.8 27.515.823.7
2017-Jul-12 21:00N 38°36' E 020°12'   280 / 31011.310.8 26.7
Track history (hours):
 
Tides and Currents Weather Stations Pressure Air Temp Water Temp Dewpoint Dewpoint Depression Visibility Wind Speed Wind Dir Waves Ship Positions

Westerdam

Operator: Holland America Line

Last reported at 2017-Jul-22 12:00 UTC. Time now 2017-Jul-22 12:42 UTC.
Position N 42°00' E 011°42'.

Type: Passenger vessel. MMSI: 244128000.

Wind from 170 at 15 knots

Barometer 1015.8 mb
Air temperature 29.0 ° C
Visibility: greater than 10.8 NM
Dewpoint 22.5 ° C
Water temperature 26.4 ° C

Date/timePositionNaut miles runAvg speedWind from/ knotsBaromVisibWave heightAir tempDewpointWater temp
2017-Jul-22 12:00N 42°00' E 011°42'86 5.9 170 / 151015.810.8 29.022.526.4
2017-Jul-21 21:24N 40°48' E 012°45'716.2
2017-Jul-21 21:00N 40°42' E 012°48'1432.0 170 / 121014.010.8 26.020.826.4
2017-Jul-21 20:33N 40°45' E 013°06'119.4
2017-Jul-21 20:30N 40°44' E 013°07'1219.5
2017-Jul-21 19:54N 40°42' E 013°23'819.5
2017-Jul-21 19:30N 40°41' E 013°33'1019.3
2017-Jul-21 19:00N 40°39' E 013°45'1019.4
2017-Jul-21 18:30N 40°38' E 013°58'918.0
2017-Jul-21 18:00N 40°41' E 014°09'918.3
2017-Jul-21 17:30N 40°48' E 014°16'2 4.5
2017-Jul-21 17:00N 40°51' E 014°16'0 0.2
2017-Jul-21 16:29N 40°51' E 014°16'0 0.0
2017-Jul-21 15:59N 40°51' E 014°16'0 0.0
2017-Jul-21 15:23N 40°51' E 014°16'0 0.0
2017-Jul-21 14:56N 40°51' E 014°16'0 0.0
2017-Jul-21 14:29N 40°51' E 014°16'0 0.0
2017-Jul-21 13:59N 40°51' E 014°16'0 0.0
2017-Jul-21 13:29N 40°51' E 014°16'0 0.0
2017-Jul-21 12:59N 40°51' E 014°16'0 0.0
2017-Jul-21 12:29N 40°51' E 014°16'0 0.0
2017-Jul-21 11:53N 40°51' E 014°16'0 0.0
2017-Jul-21 11:29N 40°51' E 014°16'0 0.0
2017-Jul-21 10:56N 40°51' E 014°16'0 0.0
2017-Jul-21 10:29N 40°51' E 014°16'0 0.0
2017-Jul-21 09:59N 40°51' E 014°16'0 0.0
2017-Jul-21 09:29N 40°51' E 014°16'0 0.0
2017-Jul-21 08:56N 40°51' E 014°16'0 0.0
2017-Jul-21 08:29N 40°51' E 014°16'0 0.0
2017-Jul-21 07:56N 40°51' E 014°16'0 0.0
2017-Jul-21 07:26N 40°51' E 014°16'0 0.0
2017-Jul-21 06:50N 40°51' E 014°16'0 0.0
2017-Jul-21 05:44N 40°51' E 014°16'0 0.0
2017-Jul-21 05:26N 40°51' E 014°16'0 0.0
2017-Jul-21 04:59N 40°51' E 014°16'0 0.0
2017-Jul-21 04:29N 40°51' E 014°16'0 0.3
2017-Jul-21 04:00N 40°50' E 014°16'3 5.0
2017-Jul-21 03:30N 40°48' E 014°17'914.3
2017-Jul-21 02:50N 40°39' E 014°16'514.0
2017-Jul-21 02:30N 40°34' E 014°17'918.2
2017-Jul-21 02:01N 40°26' E 014°21'3168.0
2017-Jul-21 02:00N 40°24' E 014°18'1020.1 060 / 81013.810.8 23.621.524.5
2017-Jul-21 01:29N 40°16' E 014°26'4919.6
2017-Jul-20 23:00N 39°30' E 014°48'4419.0 270 / 81014.510.8 25.917.824.5
2017-Jul-20 20:40N 38°49' E 015°11'316.5
2017-Jul-20 20:30N 38°48' E 015°08'1018.1
2017-Jul-20 19:57N 38°41' E 015°17'919.2
2017-Jul-20 19:30N 38°34' E 015°24'919.2
2017-Jul-20 19:01N 38°27' E 015°32'918.9
2017-Jul-20 18:30N 38°20' E 015°40'611.4
2017-Jul-20 17:59N 38°14' E 015°38'714.3
2017-Jul-20 17:28N 38°07' E 015°35'1315.4
2017-Jul-20 16:39N 37°55' E 015°38'315.8
2017-Jul-20 16:28N 37°52' E 015°40'816.8
2017-Jul-20 16:00N 37°50' E 015°49'916.6
2017-Jul-20 15:29N 37°47' E 015°60'714.5
2017-Jul-20 15:00N 37°42' E 016°06'4916.3 240 / 31013.510.8 27.918.024.0
2017-Jul-20 12:00N 37°30' E 017°06'1515.5 1014.510.8 27.918.024.0
2017-Jul-20 11:00N 37°24' E 017°24'1922.1 310 / 51014.710.8 27.817.624.0
2017-Jul-20 10:07N 37°23' E 017°49'218.9
2017-Jul-20 09:59N 37°23' E 017°51'919.0
2017-Jul-20 09:31N 37°20' E 018°02'3719.0
2017-Jul-20 07:33N 37°10' E 018°47'118.9
2017-Jul-20 07:30N 37°10' E 018°48'1018.9
2017-Jul-20 06:58N 37°07' E 019°01'2020.5
2017-Jul-20 06:00N 37°00' E 019°24'2020.1 360 / 141014.810.8 25.020.024.0
2017-Jul-20 05:00N 36°54' E 019°48'3818.2 350 / 211014.210.8 25.5 24.0
2017-Jul-20 02:54N 36°46' E 020°34'819.3
2017-Jul-20 02:31N 36°44' E 020°44'25033.3
2017-Jul-19 19:00N 36°24' E 025°54'24 3.4 010 / 321014.010.8 25.518.925.5
2017-Jul-19 12:00N 36°24' E 025°24'44 4.0 320 / 211013.210.8 25.518.925.5
2017-Jul-19 01:00N 36°18' E 024°30'26 8.6 350 / 281015.710.8 23.216.725.5
2017-Jul-18 22:00N 36°42' E 024°42'2612.4 360 / 251016.110.8
2017-Jul-18 19:52N 37°06' E 024°57'410.6
2017-Jul-18 19:30N 37°09' E 024°59'510.5
2017-Jul-18 19:00N 37°14' E 025°02'510.7
2017-Jul-18 18:30N 37°19' E 025°05'510.6
2017-Jul-18 18:01N 37°23' E 025°08'510.7
2017-Jul-18 17:30N 37°28' E 025°12'611.7
2017-Jul-18 17:00N 37°27' E 025°19'0 0.2
2017-Jul-18 16:31N 37°27' E 025°19'0 0.3
2017-Jul-18 16:01N 37°27' E 025°19'0 0.4
2017-Jul-18 15:30N 37°28' E 025°19'0 0.2
2017-Jul-18 15:00N 37°28' E 025°19'0 0.1
2017-Jul-18 14:00N 37°28' E 025°19'0 0.1
2017-Jul-18 13:31N 37°28' E 025°19'0 0.6
2017-Jul-18 13:00N 37°27' E 025°19'1 1.3
2017-Jul-18 12:28N 37°27' E 025°19'0 0.3
2017-Jul-18 11:58N 37°27' E 025°19'0 0.1
2017-Jul-18 11:28N 37°27' E 025°19'0 0.2
2017-Jul-18 10:58N 37°27' E 025°19'0 0.0
2017-Jul-18 10:25N 37°27' E 025°19'0 0.0
2017-Jul-18 09:58N 37°27' E 025°19'0 0.0
2017-Jul-18 09:28N 37°27' E 025°19'0 0.0
2017-Jul-18 08:58N 37°27' E 025°19'0 0.0
2017-Jul-18 08:28N 37°27' E 025°19'0 0.0
2017-Jul-18 07:55N 37°27' E 025°19'0 0.0
2017-Jul-18 07:28N 37°27' E 025°19'0 0.0
2017-Jul-18 06:58N 37°27' E 025°19'0 0.0
2017-Jul-18 06:28N 37°27' E 025°19'0 0.0
2017-Jul-18 05:58N 37°27' E 025°19'0 0.0
2017-Jul-18 05:28N 37°27' E 025°19'3 6.4
2017-Jul-18 05:00N 37°24' E 025°18'3103.2 340 / 281013.110.8 23.418.5
2017-Jul-18 04:58N 37°27' E 025°19'0 0.0
2017-Jul-18 04:28N 37°27' E 025°19'0 0.0
2017-Jul-18 03:58N 37°27' E 025°19'0 0.0
2017-Jul-18 03:28N 37°27' E 025°19'0 0.0
2017-Jul-18 02:58N 37°27' E 025°19'0 0.0
2017-Jul-18 02:28N 37°27' E 025°19'0 0.0
2017-Jul-18 01:58N 37°27' E 025°19'0 0.1
2017-Jul-18 01:25N 37°27' E 025°19'0 0.0
2017-Jul-18 00:58N 37°27' E 025°19'0 0.1
2017-Jul-18 00:30N 37°27' E 025°19'1 2.4
2017-Jul-18 00:00N 37°27' E 025°18'714.9
2017-Jul-17 23:30N 37°29' E 025°09'815.1
2017-Jul-17 23:00N 37°31' E 024°59'714.7
2017-Jul-17 22:30N 37°32' E 024°50'3422.2
2017-Jul-17 21:00N 37°18' E 024°12'29 6.0 360 / 221013.110.8 22.616.6
2017-Jul-17 16:12N 37°35' E 023°43'314.9
2017-Jul-17 16:00N 37°38' E 023°43'714.6
2017-Jul-17 15:30N 37°45' E 023°40'714.6
2017-Jul-17 15:00N 37°52' E 023°36'5 9.5
2017-Jul-17 14:31N 37°56' E 023°38'0 0.5
2017-Jul-17 13:58N 37°56' E 023°38'0 0.0
2017-Jul-17 13:28N 37°56' E 023°38'0 0.0
2017-Jul-17 12:58N 37°56' E 023°38'0 0.0
2017-Jul-17 12:28N 37°56' E 023°38'0 0.0
2017-Jul-17 11:58N 37°56' E 023°38'0 0.0
2017-Jul-17 11:28N 37°56' E 023°38'0 0.0
2017-Jul-17 10:58N 37°56' E 023°38'0 0.0
2017-Jul-17 10:28N 37°56' E 023°38'0 0.0
2017-Jul-17 09:58N 37°56' E 023°38'0 0.0
2017-Jul-17 09:28N 37°56' E 023°38'0 0.0
2017-Jul-17 08:58N 37°56' E 023°38'0 0.0
2017-Jul-17 08:25N 37°56' E 023°38'0 0.0
2017-Jul-17 07:58N 37°56' E 023°38'0 0.0
2017-Jul-17 07:28N 37°56' E 023°38'0 0.0
2017-Jul-17 06:58N 37°56' E 023°38'0 0.0
2017-Jul-17 06:28N 37°56' E 023°38'0 0.0
2017-Jul-17 05:58N 37°56' E 023°38'0 0.0
2017-Jul-17 05:28N 37°56' E 023°38'0 0.0
2017-Jul-17 04:58N 37°56' E 023°38'0 0.0
2017-Jul-17 04:28N 37°56' E 023°38'0 0.0
2017-Jul-17 03:58N 37°56' E 023°38'0 0.0
2017-Jul-17 03:28N 37°56' E 023°38'0 0.0
2017-Jul-17 02:58N 37°56' E 023°38'0 0.0
2017-Jul-17 02:28N 37°56' E 023°38'0 0.0
2017-Jul-17 01:58N 37°56' E 023°38'0 0.0
2017-Jul-17 01:28N 37°56' E 023°38'0 0.0
2017-Jul-17 00:55N 37°56' E 023°38'0 0.0
2017-Jul-17 00:28N 37°56' E 023°38'3 6.1
2017-Jul-17 00:00N 37°54' E 023°36'3113.8 330 / 81008.510.8 25.719.625.6
2017-Jul-16 23:58N 37°56' E 023°38'0 0.0
2017-Jul-16 23:28N 37°56' E 023°38'0 0.0
2017-Jul-16 22:58N 37°56' E 023°38'0 0.0
2017-Jul-16 22:28N 37°56' E 023°38'0 0.0
2017-Jul-16 21:58N 37°56' E 023°38'0 0.0
2017-Jul-16 21:28N 37°56' E 023°38'0 0.0
2017-Jul-16 20:58N 37°56' E 023°38'0 0.0
2017-Jul-16 20:28N 37°56' E 023°38'0 0.0
2017-Jul-16 19:58N 37°56' E 023°38'0 0.0
2017-Jul-16 19:28N 37°56' E 023°38'0 0.0
2017-Jul-16 18:58N 37°56' E 023°38'0 0.0
2017-Jul-16 18:28N 37°56' E 023°38'0 0.0
2017-Jul-16 17:58N 37°56' E 023°38'0 0.0
2017-Jul-16 17:28N 37°56' E 023°38'0 0.0
2017-Jul-16 16:58N 37°56' E 023°38'0 0.0
2017-Jul-16 16:28N 37°56' E 023°38'0 0.0
2017-Jul-16 15:58N 37°56' E 023°38'0 0.0
2017-Jul-16 15:28N 37°56' E 023°38'0 0.0
2017-Jul-16 14:58N 37°56' E 023°38'0 0.0
2017-Jul-16 14:28N 37°56' E 023°38'0 0.0
2017-Jul-16 13:58N 37°56' E 023°38'0 0.0
2017-Jul-16 13:28N 37°56' E 023°38'0 0.0
2017-Jul-16 12:58N 37°56' E 023°38'0 0.0
2017-Jul-16 12:28N 37°56' E 023°38'0 0.0
2017-Jul-16 11:58N 37°56' E 023°38'0 0.0
2017-Jul-16 11:28N 37°56' E 023°38'0 0.0
2017-Jul-16 10:58N 37°56' E 023°38'0 0.0
2017-Jul-16 10:28N 37°56' E 023°38'3 6.1
2017-Jul-16 10:00N 37°54' E 023°36'3115.0 1008.510.8 30.723.126.6
2017-Jul-16 09:58N 37°56' E 023°38'0 0.0
2017-Jul-16 09:28N 37°56' E 023°38'0 0.0
2017-Jul-16 08:58N 37°56' E 023°38'0 0.0
2017-Jul-16 08:28N 37°56' E 023°38'0 0.0
2017-Jul-16 07:58N 37°56' E 023°38'0 0.0
2017-Jul-16 07:28N 37°56' E 023°38'0 0.0
2017-Jul-16 06:58N 37°56' E 023°38'0 0.0
2017-Jul-16 06:28N 37°56' E 023°38'0 0.0
2017-Jul-16 05:58N 37°56' E 023°38'0 0.0
2017-Jul-16 05:28N 37°56' E 023°38'0 0.0
2017-Jul-16 04:58N 37°56' E 023°38'0 0.0
2017-Jul-16 04:28N 37°56' E 023°38'0 0.0
2017-Jul-16 03:58N 37°56' E 023°38'0 0.0
2017-Jul-16 03:28N 37°56' E 023°38'0 0.0
2017-Jul-16 02:58N 37°56' E 023°38'0 0.0
2017-Jul-16 02:28N 37°56' E 023°38'0 0.0
2017-Jul-16 01:58N 37°56' E 023°38'0 0.0
2017-Jul-16 01:28N 37°56' E 023°38'0 0.0
2017-Jul-16 00:58N 37°56' E 023°38'0 0.0
2017-Jul-16 00:28N 37°56' E 023°38'0 0.0
2017-Jul-15 23:58N 37°56' E 023°38'0 0.0
2017-Jul-15 23:28N 37°56' E 023°38'0 0.0
2017-Jul-15 22:58N 37°56' E 023°38'0 0.0
2017-Jul-15 22:29N 37°56' E 023°38'0 1.0
2017-Jul-15 22:00N 37°56' E 023°38'3 6.3
2017-Jul-15 21:30N 37°53' E 023°37'919.0
2017-Jul-15 21:00N 37°45' E 023°42'1019.2
2017-Jul-15 20:30N 37°36' E 023°47'45 2.5
2017-Jul-15 02:41N 37°15' E 022°57'4124.3
2017-Jul-15 01:00N 36°36' E 023°12'713.3 260 / 31007.010.8 26.717.726.6
2017-Jul-15 00:26N 36°43' E 023°11'716.4
2017-Jul-15 00:00N 36°36' E 023°12'1918.6 310 / 91007.010.8 26.717.726.6
2017-Jul-14 23:00N 36°18' E 023°06'6315.8 340 / 91007.010.8 26.717.726.6
2017-Jul-14 19:00N 36°24' E 021°48'3413.0 030 / 71007.0 5.4 26.7
2017-Jul-14 16:23N 36°51' E 021°22'3313.9
2017-Jul-14 14:00N 37°24' E 021°24'20 1.5 260 / 161007.010.8 28.1
2017-Jul-14 01:00N 37°30' E 021°00'0 0.0 040 / 51006.2 5.4 25.925.026.0
2017-Jul-13 23:00N 37°30' E 021°00'20 5.0 130 / 51007.010.8 25.5 26.0
2017-Jul-13 19:00N 37°24' E 020°36'1946139.0 340 / 241008.310.8 27.8
2017-Jul-13 05:00N 38°06' W 020°24'1911238.8 160 / 51008.710.8 27.515.823.7
2017-Jul-12 21:00N 38°36' E 020°12'   280 / 31011.310.8 26.7

Dump ship's entire track history